Time;durP1;ratioP1;P1;durP2;ratioP2;P2;SDS_P1;SDS_P2;PMS_P1;PMS_P2;Temp;Humidity;BMP_temperature;BMP_pressure;BME280_temperature;BME280_humidity;BME280_pressure;Samples;Min_cycle;Max_cycle;Signal;HPM_P1;HPM_P2
2022/09/13 00:00:07;;;;;;;;;;;22.70;99.90;220.40;238766.00;;;;348583;28;4719;-90
2022/09/13 00:00:19;;;;;;;;;;;22.70;99.90;220.40;238766.00;;;;347172;28;4825;-90
2022/09/13 00:00:31;;;;;;;;;;;22.70;99.90;220.40;238766.00;;;;345784;28;4689;-89
2022/09/13 00:00:43;;;;;;;;;;;22.70;99.90;220.40;238766.00;;;;348559;28;4785;-89
2022/09/13 00:00:55;;;;;;;;;;;22.70;99.90;220.40;238766.00;;;;347261;28;4703;-89
2022/09/13 00:01:07;;;;;;;;;;;22.70;99.90;220.40;238766.00;;;;345826;28;4774;-90
2022/09/13 00:01:19;;;;;;;;;;;22.70;99.90;220.40;238766.00;;;;347237;28;4732;-89
2022/09/13 00:01:31;;;;;;;;;;;22.70;99.90;220.40;238766.00;;;;348476;28;4773;-90
2022/09/13 00:01:42;;;;;;;;;;;22.70;99.90;220.40;238766.00;;;;348582;28;4923;-89
2022/09/13 00:01:54;;;;;;;;;;;22.70;99.90;220.40;238766.00;;;;345934;28;4762;-89
2022/09/13 00:02:06;;;;;;;;;;;22.70;99.90;220.40;238766.00;;;;347270;28;5079;-89
2022/09/13 00:02:18;;;;;;;;;;;22.70;99.90;220.40;238766.00;;;;349973;28;4823;-90
2022/09/13 00:02:30;;;;;;;;;;;22.70;99.90;220.40;238766.00;;;;348576;28;4708;-90
2022/09/13 00:02:42;;;;;;;;;;;22.80;99.90;220.40;238766.00;;;;348396;28;4794;-90
2022/09/13 00:02:54;;;;;;;;;;;22.80;99.90;220.40;238766.00;;;;345748;28;4797;-89
2022/09/13 00:03:06;;;;;;;;;;;22.80;99.90;220.40;238766.00;;;;347284;28;4751;-89
2022/09/13 00:03:18;;;;;;;;;;;22.80;99.90;220.40;238766.00;;;;348679;28;4914;-90
2022/09/13 00:03:30;;;;;;;;;;;22.80;99.90;220.40;238766.00;;;;347137;28;4756;-89
2022/09/13 00:03:42;;;;;;;;;;;22.80;99.90;220.40;238766.00;;;;347159;28;4736;-90
2022/09/13 00:03:54;;;;;;;;;;;22.80;99.90;220.40;238766.00;;;;347231;28;4779;-90
2022/09/13 00:04:05;;;;;;;;;;;22.80;99.90;220.40;238766.00;;;;348684;28;4686;-90
2022/09/13 00:04:17;;;;;;;;;;;22.80;99.90;220.40;238766.00;;;;348531;28;4805;-90
2022/09/13 00:04:29;;;;;;;;;;;22.80;99.90;220.40;238766.00;;;;347150;28;4696;-89
2022/09/13 00:04:41;;;;;;;;;;;22.80;99.90;220.40;238766.00;;;;347101;28;4819;-90
2022/09/13 00:04:52;;;;;;;;;;;22.80;99.90;220.40;238766.00;;;;349989;28;4897;-89
2022/09/13 00:05:05;;;;;;;;;;;22.80;99.90;220.40;238766.00;;;;347163;28;4798;-89
2022/09/13 00:05:16;;;;;;;;;;;22.80;99.90;220.40;238766.00;;;;345820;28;4815;-90
2022/09/13 00:05:28;;;;;;;;;;;22.80;99.90;220.40;238766.00;;;;346841;28;4839;-90
2022/09/13 00:05:40;;;;;;;;;;;22.80;99.90;220.40;238766.00;;;;348443;28;4693;-89
2022/09/13 00:05:52;;;;;;;;;;;22.80;99.90;220.40;238766.00;;;;347277;28;4776;-89
2022/09/13 00:06:16;;;;;;;;;;;22.80;99.90;220.40;238766.00;;;;345858;28;4706;-90
2022/09/13 00:06:28;;;;;;;;;;;22.80;99.90;220.40;238766.00;;;;347113;28;4850;-89
2022/09/13 00:06:40;;;;;;;;;;;22.80;99.90;220.40;238766.00;;;;349922;28;4688;-89
2022/09/13 00:06:51;;;;;;;;;;;22.90;99.90;220.40;238766.00;;;;347128;28;4810;-88
2022/09/13 00:07:03;;;;;;;;;;;22.90;99.90;220.40;238766.00;;;;347143;28;4716;-90
2022/09/13 00:07:15;;;;;;;;;;;22.80;99.90;220.40;238766.00;;;;344476;28;4810;-90
2022/09/13 00:07:27;;;;;;;;;;;22.80;99.90;220.40;238766.00;;;;348580;28;4857;-89
2022/09/13 00:07:39;;;;;;;;;;;22.80;99.90;220.40;238766.00;;;;349964;28;4900;-90
2022/09/13 00:07:50;;;;;;;;;;;22.80;99.90;220.40;238766.00;;;;347301;28;4703;-89
2022/09/13 00:08:02;;;;;;;;;;;22.80;99.90;220.40;238766.00;;;;347220;28;4821;-89
2022/09/13 00:08:14;;;;;;;;;;;22.80;99.90;220.40;238766.00;;;;348553;28;4707;-89
2022/09/13 00:08:26;;;;;;;;;;;22.80;99.90;220.40;238766.00;;;;349886;28;4791;-90
2022/09/13 00:08:38;;;;;;;;;;;22.80;99.90;220.40;238766.00;;;;348517;28;4889;-90
2022/09/13 00:08:49;;;;;;;;;;;22.80;99.90;220.40;238766.00;;;;348525;28;4805;-90
2022/09/13 00:09:01;;;;;;;;;;;22.80;99.90;220.40;238766.00;;;;348575;28;6767;-90
2022/09/13 00:09:13;;;;;;;;;;;22.80;99.90;220.40;238766.00;;;;347054;28;4781;-90
2022/09/13 00:09:25;;;;;;;;;;;22.80;99.90;220.40;238766.00;;;;345681;28;4886;-90
2022/09/13 00:09:37;;;;;;;;;;;22.80;99.90;220.40;238766.00;;;;347296;28;4682;-89
2022/09/13 00:09:49;;;;;;;;;;;22.80;99.90;220.40;238766.00;;;;346025;28;5288;-90
2022/09/13 00:10:00;;;;;;;;;;;22.80;99.90;220.40;238766.00;;;;347240;28;4777;-90
2022/09/13 00:10:12;;;;;;;;;;;22.80;99.90;220.40;238766.00;;;;347220;28;4679;-89
2022/09/13 00:10:25;;;;;;;;;;;22.80;99.90;220.40;238766.00;;;;347121;28;4799;-90
2022/09/13 00:10:37;;;;;;;;;;;22.80;99.90;220.40;238766.00;;;;345846;28;4673;-90
2022/09/13 00:10:49;;;;;;;;;;;22.80;99.90;220.40;238766.00;;;;347218;28;4862;-90
2022/09/13 00:11:00;;;;;;;;;;;22.80;99.90;220.40;238766.00;;;;347187;28;5170;-89
2022/09/13 00:11:19;;;;;;;;;;;22.80;99.90;220.40;238766.00;;;;345865;28;4801;-90
2022/09/13 00:11:30;;;;;;;;;;;22.80;99.90;220.40;238766.00;;;;346999;28;4732;-89
2022/09/13 00:11:42;;;;;;;;;;;22.80;99.90;220.40;238766.00;;;;347101;28;4835;-90
2022/09/13 00:11:54;;;;;;;;;;;22.80;99.90;220.40;238766.00;;;;348650;28;4737;-90
2022/09/13 00:12:06;;;;;;;;;;;22.80;99.90;220.40;238766.00;;;;349931;28;4763;-89
2022/09/13 00:12:17;;;;;;;;;;;22.80;99.90;220.40;238766.00;;;;347150;28;4667;-90
2022/09/13 00:12:29;;;;;;;;;;;22.80;99.90;220.40;238766.00;;;;345907;28;4802;-88
2022/09/13 00:12:41;;;;;;;;;;;22.80;99.90;220.40;238766.00;;;;348550;28;4685;-89
2022/09/13 00:12:53;;;;;;;;;;;22.80;99.90;220.40;238766.00;;;;344518;28;4782;-90
2022/09/13 00:13:07;;;;;;;;;;;22.80;99.90;220.40;238766.00;;;;346969;28;4701;-89
2022/09/13 00:13:18;;;;;;;;;;;22.80;99.90;220.40;238766.00;;;;348603;28;4766;-90
2022/09/13 00:13:30;;;;;;;;;;;22.80;99.90;220.40;238766.00;;;;348578;28;4684;-90
2022/09/13 00:13:42;;;;;;;;;;;22.80;99.90;220.40;238766.00;;;;347189;28;4839;-90
2022/09/13 00:13:54;;;;;;;;;;;22.80;99.90;220.40;238766.00;;;;345958;28;5173;-89
2022/09/13 00:14:06;;;;;;;;;;;22.70;99.90;220.40;238766.00;;;;345747;28;4787;-90
2022/09/13 00:14:18;;;;;;;;;;;22.80;99.90;220.40;238766.00;;;;347019;28;4697;-90
2022/09/13 00:14:30;;;;;;;;;;;22.80;99.90;220.40;238766.00;;;;345799;28;4956;-90
2022/09/13 00:14:41;;;;;;;;;;;22.80;99.90;220.40;238766.00;;;;348595;28;4696;-90
2022/09/13 00:14:53;;;;;;;;;;;22.80;99.90;220.40;238766.00;;;;347173;28;4784;-90
2022/09/13 00:15:05;;;;;;;;;;;22.80;99.90;220.40;238766.00;;;;344483;28;4698;-89
2022/09/13 00:15:17;;;;;;;;;;;22.80;99.90;220.40;238766.00;;;;345802;28;4800;-90
2022/09/13 00:15:29;;;;;;;;;;;22.70;99.90;220.40;238766.00;;;;345869;28;4885;-90
2022/09/13 00:15:43;;;;;;;;;;;22.70;99.90;220.40;238766.00;;;;348485;28;4817;-90
2022/09/13 00:15:55;;;;;;;;;;;22.70;99.90;220.40;238766.00;;;;348939;28;4728;-90
2022/09/13 00:16:12;;;;;;;;;;;22.70;99.90;220.40;238766.00;;;;347236;28;4883;-90
2022/09/13 00:16:26;;;;;;;;;;;22.70;99.90;220.40;238766.00;;;;347240;28;4693;-90
2022/09/13 00:16:38;;;;;;;;;;;22.70;99.90;220.40;238766.00;;;;350151;28;4729;-89
2022/09/13 00:16:50;;;;;;;;;;;22.70;99.90;220.40;238766.00;;;;348636;28;4685;-90
2022/09/13 00:17:01;;;;;;;;;;;22.70;99.90;220.40;238766.00;;;;348430;28;5051;-90
2022/09/13 00:17:13;;;;;;;;;;;22.70;99.90;220.40;238766.00;;;;349891;28;4801;-90
2022/09/13 00:17:25;;;;;;;;;;;22.70;99.90;220.40;238766.00;;;;349982;28;4823;-90
2022/09/13 00:17:37;;;;;;;;;;;22.70;99.90;220.40;238766.00;;;;347255;28;4796;-90
2022/09/13 00:17:49;;;;;;;;;;;22.70;99.90;220.40;238766.00;;;;347121;28;4855;-89
2022/09/13 00:18:00;;;;;;;;;;;22.70;99.90;220.40;238766.00;;;;347305;28;5157;-90
2022/09/13 00:18:13;;;;;;;;;;;22.70;99.90;220.40;238766.00;;;;348552;28;4798;-90
2022/09/13 00:18:24;;;;;;;;;;;22.70;99.90;220.40;238766.00;;;;345816;28;4882;-90
2022/09/13 00:18:36;;;;;;;;;;;22.70;99.90;220.40;238766.00;;;;347252;28;4745;-89
2022/09/13 00:18:48;;;;;;;;;;;22.70;99.90;220.40;238766.00;;;;349986;28;4694;-90
2022/09/13 00:19:00;;;;;;;;;;;22.70;99.90;220.40;238766.00;;;;347227;28;4800;-90
2022/09/13 00:19:12;;;;;;;;;;;22.70;99.90;220.40;238766.00;;;;348508;28;4686;-90
2022/09/13 00:19:23;;;;;;;;;;;22.70;99.90;220.40;238766.00;;;;348514;28;4822;-89
2022/09/13 00:19:35;;;;;;;;;;;22.70;99.90;220.40;238766.00;;;;348350;28;4988;-90
2022/09/13 00:19:47;;;;;;;;;;;22.70;99.90;220.40;238766.00;;;;348716;28;4687;-90
2022/09/13 00:19:59;;;;;;;;;;;22.70;99.90;220.40;238766.00;;;;350027;28;4673;-89
2022/09/13 00:20:10;;;;;;;;;;;22.70;99.90;220.40;238766.00;;;;349976;28;4803;-89
2022/09/13 00:20:22;;;;;;;;;;;22.70;99.90;220.40;238766.00;;;;347135;28;4923;-90
2022/09/13 00:20:34;;;;;;;;;;;22.70;99.90;220.40;238766.00;;;;345813;28;4802;-90
2022/09/13 00:20:46;;;;;;;;;;;22.70;99.90;220.40;238766.00;;;;348558;28;4696;-90
2022/09/13 00:21:12;;;;;;;;;;;22.70;99.90;220.40;238766.00;;;;348526;28;4809;-90
2022/09/13 00:21:24;;;;;;;;;;;22.70;99.90;220.40;238766.00;;;;348587;28;4710;-90
2022/09/13 00:21:35;;;;;;;;;;;22.70;99.90;220.40;238766.00;;;;347087;28;4833;-90
2022/09/13 00:21:47;;;;;;;;;;;22.70;99.90;220.40;238766.00;;;;348517;28;4704;-90
2022/09/13 00:21:59;;;;;;;;;;;22.70;99.90;220.40;238766.00;;;;348414;28;4781;-90
2022/09/13 00:22:11;;;;;;;;;;;22.70;99.90;220.40;238766.00;;;;348388;28;5104;-90
2022/09/13 00:22:22;;;;;;;;;;;22.70;99.90;220.40;238766.00;;;;345842;28;4771;-89
2022/09/13 00:22:34;;;;;;;;;;;22.70;99.90;220.40;238766.00;;;;347237;28;4893;-90
2022/09/13 00:22:46;;;;;;;;;;;22.70;99.90;220.40;238766.00;;;;347123;28;4769;-88
2022/09/13 00:22:58;;;;;;;;;;;22.70;99.90;220.40;238766.00;;;;347341;28;4725;-90
2022/09/13 00:23:10;;;;;;;;;;;22.70;99.90;220.40;238766.00;;;;347239;28;4802;-89
2022/09/13 00:23:22;;;;;;;;;;;22.70;99.90;220.40;238766.00;;;;349978;28;4688;-89
2022/09/13 00:23:34;;;;;;;;;;;22.70;99.90;220.40;238766.00;;;;347283;28;4795;-89
2022/09/13 00:23:50;;;;;;;;;;;22.70;99.90;220.40;238766.00;;;;347118;28;4691;-89
2022/09/13 00:24:01;;;;;;;;;;;22.70;99.90;220.40;238766.00;;;;345891;28;4798;-90
2022/09/13 00:24:13;;;;;;;;;;;22.70;99.90;220.40;238766.00;;;;348712;28;4807;-89
2022/09/13 00:24:25;;;;;;;;;;;22.70;99.90;220.40;238766.00;;;;348440;28;4821;-90
2022/09/13 00:24:37;;;;;;;;;;;22.70;99.90;220.40;238766.00;;;;347272;28;4716;-91
2022/09/13 00:24:48;;;;;;;;;;;22.70;99.90;220.40;238766.00;;;;347055;28;4751;-90
2022/09/13 00:25:01;;;;;;;;;;;22.70;99.90;220.40;238766.00;;;;349912;28;4731;-90
2022/09/13 00:25:13;;;;;;;;;;;22.70;99.90;220.40;238766.00;;;;348462;28;4985;-89
2022/09/13 00:25:25;;;;;;;;;;;22.70;99.90;220.40;238766.00;;;;349959;28;4907;-89
2022/09/13 00:25:37;;;;;;;;;;;22.70;99.90;220.40;238766.00;;;;347119;28;4808;-90
2022/09/13 00:25:49;;;;;;;;;;;22.70;99.90;220.40;238766.00;;;;347272;28;4788;-90
2022/09/13 00:26:05;;;;;;;;;;;22.70;99.90;220.40;238766.00;;;;348564;28;4802;-89
2022/09/13 00:26:19;;;;;;;;;;;22.70;99.90;220.40;238766.00;;;;345899;28;4696;-89
2022/09/13 00:26:30;;;;;;;;;;;22.70;99.90;220.40;238766.00;;;;345799;28;4787;-90
2022/09/13 00:26:42;;;;;;;;;;;22.70;99.90;220.40;238766.00;;;;347212;28;4694;-89
2022/09/13 00:26:54;;;;;;;;;;;22.70;99.90;220.40;238766.00;;;;347173;28;4994;-89
2022/09/13 00:27:06;;;;;;;;;;;22.70;99.90;220.40;238766.00;;;;348591;28;6921;-90
2022/09/13 00:27:18;;;;;;;;;;;22.70;99.90;220.40;238766.00;;;;345986;28;4808;-90
2022/09/13 00:27:31;;;;;;;;;;;22.70;99.90;220.40;238766.00;;;;347164;28;4884;-90
2022/09/13 00:27:43;;;;;;;;;;;22.70;99.90;220.40;238766.00;;;;346996;28;4805;-89
2022/09/13 00:27:55;;;;;;;;;;;22.70;99.90;220.40;238766.00;;;;344615;28;4709;-90
2022/09/13 00:28:07;;;;;;;;;;;22.70;99.90;220.40;238766.00;;;;345825;28;4788;-90
2022/09/13 00:28:19;;;;;;;;;;;22.70;99.90;220.40;238766.00;;;;347106;28;4699;-90
2022/09/13 00:28:30;;;;;;;;;;;22.70;99.90;220.40;238766.00;;;;345809;28;4802;-89
2022/09/13 00:28:44;;;;;;;;;;;22.70;99.90;220.40;238766.00;;;;348602;28;4815;-89
2022/09/13 00:28:56;;;;;;;;;;;22.70;99.90;220.40;238766.00;;;;347199;28;4846;-90
2022/09/13 00:29:08;;;;;;;;;;;22.70;99.90;220.40;238766.00;;;;344473;28;5238;-90
2022/09/13 00:29:20;;;;;;;;;;;22.70;99.90;220.40;238766.00;;;;345800;28;4798;-90
2022/09/13 00:29:32;;;;;;;;;;;22.70;99.90;220.40;238766.00;;;;347111;28;4710;-89
2022/09/13 00:29:44;;;;;;;;;;;22.70;99.90;220.40;238766.00;;;;345789;28;4796;-89
2022/09/13 00:29:55;;;;;;;;;;;22.70;99.90;220.40;238766.00;;;;345811;28;4796;-89
2022/09/13 00:30:08;;;;;;;;;;;22.70;99.90;220.40;238766.00;;;;346889;28;4792;-90
2022/09/13 00:30:20;;;;;;;;;;;22.70;99.90;220.40;238766.00;;;;344430;28;4800;-90
2022/09/13 00:30:32;;;;;;;;;;;22.70;99.90;220.40;238766.00;;;;345771;28;4811;-89
2022/09/13 00:30:43;;;;;;;;;;;22.70;99.90;220.40;238766.00;;;;345781;28;4723;-90
2022/09/13 00:30:59;;;;;;;;;;;22.70;99.90;220.40;238766.00;;;;347084;28;4868;-90
2022/09/13 00:31:11;;;;;;;;;;;22.70;99.90;220.40;238766.00;;;;345930;28;4702;-90
2022/09/13 00:31:24;;;;;;;;;;;22.70;99.90;220.40;238766.00;;;;347197;28;4793;-90
2022/09/13 00:31:35;;;;;;;;;;;22.70;99.90;220.40;238766.00;;;;348530;28;4682;-90
2022/09/13 00:31:47;;;;;;;;;;;22.70;99.90;220.40;238766.00;;;;345803;28;4785;-90
2022/09/13 00:31:59;;;;;;;;;;;22.70;99.90;220.40;238766.00;;;;345972;28;4693;-91
2022/09/13 00:32:12;;;;;;;;;;;22.70;99.90;220.40;238766.00;;;;348540;28;4840;-90
2022/09/13 00:32:23;;;;;;;;;;;22.70;99.90;220.40;238766.00;;;;348633;28;6639;-90
2022/09/13 00:32:35;;;;;;;;;;;22.70;99.90;220.40;238766.00;;;;347406;28;4768;-89
2022/09/13 00:32:47;;;;;;;;;;;22.70;99.90;220.40;238766.00;;;;345945;28;4720;-89
2022/09/13 00:33:03;;;;;;;;;;;22.70;99.90;220.40;238766.00;;;;348508;28;4820;-89
2022/09/13 00:33:15;;;;;;;;;;;22.70;99.90;220.40;238766.00;;;;348840;28;4703;-89
2022/09/13 00:33:26;;;;;;;;;;;22.70;99.90;220.40;238766.00;;;;345947;28;4746;-90
2022/09/13 00:33:38;;;;;;;;;;;22.70;99.90;220.40;238766.00;;;;346968;28;4689;-90
2022/09/13 00:33:50;;;;;;;;;;;22.70;99.90;220.40;238766.00;;;;349985;28;4783;-90
2022/09/13 00:34:02;;;;;;;;;;;22.70;99.90;220.40;238766.00;;;;347295;28;4726;-89
2022/09/13 00:34:13;;;;;;;;;;;22.70;99.90;220.40;238766.00;;;;347178;28;4806;-89
2022/09/13 00:34:25;;;;;;;;;;;22.70;99.90;220.40;238766.00;;;;348623;28;4694;-89
2022/09/13 00:34:37;;;;;;;;;;;22.70;99.90;220.40;238766.00;;;;348717;28;4807;-90
2022/09/13 00:34:49;;;;;;;;;;;22.70;99.90;220.40;238766.00;;;;348645;28;4886;-90
2022/09/13 00:35:02;;;;;;;;;;;22.70;99.90;220.40;238766.00;;;;345844;28;4850;-90
2022/09/13 00:35:14;;;;;;;;;;;22.70;99.90;220.40;238766.00;;;;348662;28;4702;-90
2022/09/13 00:35:26;;;;;;;;;;;22.70;99.90;220.40;238766.00;;;;347136;28;4787;-90
2022/09/13 00:35:38;;;;;;;;;;;22.70;99.90;220.40;238766.00;;;;347359;28;4943;-89
2022/09/13 00:35:50;;;;;;;;;;;22.70;99.90;220.40;238766.00;;;;347301;28;4760;-90
2022/09/13 00:36:06;;;;;;;;;;;22.70;99.90;220.40;238766.00;;;;347139;28;4695;-90
2022/09/13 00:36:17;;;;;;;;;;;22.70;99.90;220.40;238766.00;;;;345937;28;4761;-90
2022/09/13 00:36:29;;;;;;;;;;;22.70;99.90;220.40;238766.00;;;;348544;28;5064;-90
2022/09/13 00:36:41;;;;;;;;;;;22.70;99.90;220.40;238766.00;;;;351335;28;4838;-90
2022/09/13 00:36:53;;;;;;;;;;;22.70;99.90;220.40;238766.00;;;;348589;28;4706;-90
2022/09/13 00:37:05;;;;;;;;;;;22.70;99.90;220.40;238766.00;;;;347167;28;4831;-90
2022/09/13 00:37:16;;;;;;;;;;;22.70;99.90;220.40;238766.00;;;;350040;28;4924;-90
2022/09/13 00:37:28;;;;;;;;;;;22.70;99.90;220.40;238766.00;;;;348523;28;4729;-89
2022/09/13 00:37:40;;;;;;;;;;;22.70;99.90;220.40;238766.00;;;;347185;28;4785;-90
2022/09/13 00:37:52;;;;;;;;;;;22.70;99.90;220.40;238766.00;;;;348586;28;4788;-90
2022/09/13 00:38:03;;;;;;;;;;;22.70;99.90;220.40;238766.00;;;;347223;28;4734;-90
2022/09/13 00:38:15;;;;;;;;;;;22.70;99.90;220.40;238766.00;;;;347198;28;4982;-90
2022/09/13 00:38:27;;;;;;;;;;;22.80;99.90;220.40;238766.00;;;;347186;28;4915;-90
2022/09/13 00:38:39;;;;;;;;;;;22.70;99.90;220.40;238766.00;;;;349926;28;4807;-90
2022/09/13 00:38:51;;;;;;;;;;;22.80;99.90;220.40;238766.00;;;;345810;28;4700;-89
2022/09/13 00:39:02;;;;;;;;;;;22.80;99.90;220.40;238766.00;;;;345765;28;5026;-90
2022/09/13 00:39:14;;;;;;;;;;;22.70;99.90;220.40;238766.00;;;;348645;28;4784;-90
2022/09/13 00:39:26;;;;;;;;;;;22.80;99.90;220.40;238766.00;;;;348521;28;4810;-90
2022/09/13 00:39:38;;;;;;;;;;;22.70;99.90;220.40;238766.00;;;;349890;28;4824;-90
2022/09/13 00:39:49;;;;;;;;;;;22.80;99.90;220.40;238766.00;;;;348426;28;4861;-90
2022/09/13 00:40:02;;;;;;;;;;;22.80;99.90;220.40;238766.00;;;;345773;28;4713;-90
2022/09/13 00:40:14;;;;;;;;;;;22.80;99.90;220.40;238766.00;;;;347183;28;4907;-89
2022/09/13 00:40:25;;;;;;;;;;;22.80;99.90;220.40;238766.00;;;;348564;28;4719;-90
2022/09/13 00:40:37;;;;;;;;;;;22.80;99.90;220.40;238766.00;;;;348486;28;4781;-89
2022/09/13 00:40:49;;;;;;;;;;;22.70;99.90;220.40;238766.00;;;;349970;28;4695;-89
2022/09/13 00:41:05;;;;;;;;;;;22.80;99.90;220.40;238766.00;;;;347170;28;4761;-90
2022/09/13 00:41:18;;;;;;;;;;;22.80;99.90;220.40;238766.00;;;;347318;28;4710;-90
2022/09/13 00:41:30;;;;;;;;;;;22.80;99.90;220.40;238766.00;;;;349938;28;4779;-89
2022/09/13 00:41:41;;;;;;;;;;;22.80;99.90;220.40;238766.00;;;;347187;28;4701;-90
2022/09/13 00:41:53;;;;;;;;;;;22.80;99.90;220.40;238766.00;;;;347145;28;4741;-89
2022/09/13 00:42:09;;;;;;;;;;;22.80;99.90;220.40;238766.00;;;;347301;28;5095;-88
2022/09/13 00:42:25;;;;;;;;;;;22.80;99.90;220.40;238766.00;;;;347253;28;4809;-89
2022/09/13 00:42:37;;;;;;;;;;;22.70;99.90;220.40;238766.00;;;;348855;28;4721;-89
2022/09/13 00:42:49;;;;;;;;;;;22.70;99.90;220.40;238766.00;;;;348763;28;4833;-90
2022/09/13 00:43:00;;;;;;;;;;;22.80;99.90;220.40;238766.00;;;;347444;28;4697;-90
2022/09/13 00:43:17;;;;;;;;;;;22.70;99.90;220.40;238766.00;;;;350244;28;4803;-89
2022/09/13 00:43:42;;;;;;;;;;;22.80;99.90;220.40;238766.00;;;;348836;28;4763;-90
2022/09/13 00:43:55;;;;;;;;;;;22.80;99.90;220.40;238766.00;;;;350205;28;4827;-90
2022/09/13 00:44:45;;;;;;;;;;;22.80;99.90;220.40;238766.00;;;;348903;28;4894;-90
2022/09/13 00:45:11;;;;;;;;;;;22.80;99.90;220.40;238766.00;;;;348828;28;4714;-89
2022/09/13 00:45:22;;;;;;;;;;;22.80;99.90;220.40;238766.00;;;;351753;28;4973;-89
2022/09/13 00:45:34;;;;;;;;;;;22.70;99.90;220.40;238766.00;;;;347363;28;4799;-89
2022/09/13 00:45:46;;;;;;;;;;;22.70;99.90;220.40;238766.00;;;;347399;28;4813;-89
2022/09/13 00:45:58;;;;;;;;;;;22.70;99.90;220.40;238766.00;;;;348920;28;4690;-90
2022/09/13 00:46:16;;;;;;;;;;;22.70;99.90;220.40;238766.00;;;;348630;28;4761;-89
2022/09/13 00:46:27;;;;;;;;;;;22.70;99.90;220.40;238766.00;;;;347379;28;4804;-90
2022/09/13 00:46:41;;;;;;;;;;;22.70;99.90;220.40;238766.00;;;;348915;28;4874;-89
2022/09/13 00:46:53;;;;;;;;;;;22.70;99.90;220.40;238766.00;;;;347327;28;4768;-89
2022/09/13 00:47:05;;;;;;;;;;;22.70;99.90;220.40;238766.00;;;;348931;28;4767;-90
2022/09/13 00:47:23;;;;;;;;;;;22.70;99.90;220.40;238766.00;;;;346029;28;4791;-89
2022/09/13 00:47:41;;;;;;;;;;;22.70;99.90;220.40;238766.00;;;;348767;28;4724;-90
2022/09/13 00:47:58;;;;;;;;;;;22.70;99.90;220.40;238766.00;;;;348835;28;4900;-90
2022/09/13 00:48:19;;;;;;;;;;;22.70;99.90;220.40;238766.00;;;;348675;28;4885;-90
2022/09/13 00:48:31;;;;;;;;;;;22.70;99.90;220.40;238766.00;;;;348793;28;4781;-89
2022/09/13 00:48:43;;;;;;;;;;;22.70;99.90;220.40;238766.00;;;;346023;28;4721;-90
2022/09/13 00:49:01;;;;;;;;;;;22.60;99.90;220.40;238766.00;;;;348648;28;4849;-90
2022/09/13 00:49:23;;;;;;;;;;;22.60;99.90;220.40;238766.00;;;;350165;28;5183;-90
2022/09/13 00:49:35;;;;;;;;;;;22.60;99.90;220.40;238766.00;;;;347395;28;4827;-90
2022/09/13 00:49:47;;;;;;;;;;;22.60;99.90;220.40;238766.00;;;;345990;28;4732;-90
2022/09/13 00:50:29;;;;;;;;;;;22.60;99.90;220.40;238766.00;;;;347346;28;4799;-88
2022/09/13 00:50:42;;;;;;;;;;;22.60;99.90;220.40;238766.00;;;;347512;28;4770;-89
2022/09/13 00:50:54;;;;;;;;;;;22.60;99.90;220.40;238766.00;;;;344626;28;4800;-89
2022/09/13 00:51:06;;;;;;;;;;;22.60;99.90;220.40;238766.00;;;;348842;28;5184;-89
2022/09/13 00:51:18;;;;;;;;;;;22.60;99.90;220.40;238766.00;;;;347343;28;4824;-90
2022/09/13 00:51:30;;;;;;;;;;;22.60;99.90;220.40;238766.00;;;;346021;28;4918;-90
2022/09/13 00:51:44;;;;;;;;;;;22.60;99.90;220.40;238766.00;;;;348729;28;4813;-89
2022/09/13 00:51:58;;;;;;;;;;;22.60;99.90;220.40;238766.00;;;;348769;28;4696;-90
2022/09/13 00:52:12;;;;;;;;;;;22.60;99.90;220.40;238766.00;;;;347178;28;4781;-89
2022/09/13 00:52:24;;;;;;;;;;;22.60;99.90;220.40;238766.00;;;;344655;28;4968;-90
2022/09/13 00:52:36;;;;;;;;;;;22.60;99.90;220.40;238766.00;;;;346094;28;4771;-90
2022/09/13 00:52:54;;;;;;;;;;;22.60;99.90;220.40;238766.00;;;;347418;28;4733;-89
2022/09/13 00:53:08;;;;;;;;;;;22.60;99.90;220.40;238766.00;;;;347390;28;4780;-89
2022/09/13 00:53:25;;;;;;;;;;;22.60;99.90;220.40;238766.00;;;;348717;28;4734;-90
2022/09/13 00:53:38;;;;;;;;;;;22.60;99.90;220.40;238766.00;;;;348710;28;4820;-90
2022/09/13 00:53:51;;;;;;;;;;;22.60;99.90;220.40;238766.00;;;;347390;28;4964;-90
2022/09/13 00:54:02;;;;;;;;;;;22.50;99.90;220.40;238766.00;;;;346046;28;4777;-90
2022/09/13 00:54:14;;;;;;;;;;;22.50;99.90;220.40;238766.00;;;;347323;28;4698;-90
2022/09/13 00:54:28;;;;;;;;;;;22.50;99.90;220.40;238766.00;;;;348753;28;4814;-89
2022/09/13 00:54:56;;;;;;;;;;;22.50;99.90;220.40;238766.00;;;;348852;28;4701;-90
2022/09/13 00:55:15;;;;;;;;;;;22.50;99.90;220.40;238766.00;;;;351565;28;4829;-89
2022/09/13 00:55:36;;;;;;;;;;;22.50;99.90;220.40;238766.00;;;;348812;28;4711;-89
2022/09/13 00:55:53;;;;;;;;;;;22.50;99.90;220.40;238766.00;;;;347372;28;4787;-89
2022/09/13 00:56:08;;;;;;;;;;;22.50;99.90;220.40;238766.00;;;;348785;28;4762;-90
2022/09/13 00:56:44;;;;;;;;;;;22.50;99.90;220.40;238766.00;;;;348740;28;4830;-91
2022/09/13 00:56:57;;;;;;;;;;;22.50;99.90;220.40;238766.00;;;;346010;28;4697;-90
2022/09/13 00:57:09;;;;;;;;;;;22.50;99.90;220.40;238766.00;;;;345178;28;4866;-90
2022/09/13 00:57:20;;;;;;;;;;;22.50;99.90;220.40;238766.00;;;;348552;28;4724;-90
2022/09/13 00:57:32;;;;;;;;;;;22.50;99.90;220.40;238766.00;;;;350102;28;4796;-90
2022/09/13 00:57:44;;;;;;;;;;;22.50;99.90;220.40;238766.00;;;;344665;28;4757;-90
2022/09/13 00:57:59;;;;;;;;;;;22.50;99.90;220.40;238766.00;;;;347515;28;4776;-90
2022/09/13 00:58:15;;;;;;;;;;;22.50;99.90;220.40;238766.00;;;;348777;28;5249;-90
2022/09/13 00:58:29;;;;;;;;;;;22.50;99.90;220.40;238766.00;;;;347425;28;4773;-90
2022/09/13 00:59:15;;;;;;;;;;;22.40;99.90;220.40;238766.00;;;;348778;28;5289;-89
2022/09/13 00:59:32;;;;;;;;;;;22.40;99.90;220.40;238766.00;;;;344716;28;4820;-90
2022/09/13 00:59:56;;;;;;;;;;;22.40;99.90;220.40;238766.00;;;;343263;28;4717;-90
2022/09/13 01:00:12;;;;;;;;;;;22.40;99.90;220.40;238766.00;;;;340658;29;4783;-89
2022/09/13 01:00:24;;;;;;;;;;;22.40;99.90;220.40;238766.00;;;;343241;28;5078;-90
2022/09/13 01:00:36;;;;;;;;;;;22.40;99.90;220.40;238766.00;;;;344388;28;4804;-90
2022/09/13 01:00:47;;;;;;;;;;;22.40;99.90;220.40;238766.00;;;;343356;28;4728;-89
2022/09/13 01:00:59;;;;;;;;;;;22.40;99.90;220.40;238766.00;;;;343100;28;4802;-90
2022/09/13 01:01:12;;;;;;;;;;;22.40;99.90;220.40;238766.00;;;;340700;29;4730;-90
2022/09/13 01:01:27;;;;;;;;;;;22.40;99.90;220.40;238766.00;;;;340641;29;4838;-89
2022/09/13 01:01:44;;;;;;;;;;;22.40;99.90;220.40;238766.00;;;;340493;29;4708;-90
2022/09/13 01:01:56;;;;;;;;;;;22.30;99.90;220.40;238766.00;;;;341971;28;4846;-89
2022/09/13 01:02:08;;;;;;;;;;;22.30;99.90;220.40;238766.00;;;;343312;28;4723;-90
2022/09/13 01:02:20;;;;;;;;;;;22.30;99.90;220.40;238766.00;;;;340574;29;4779;-89
2022/09/13 01:02:31;;;;;;;;;;;22.30;99.90;220.40;238766.00;;;;340658;29;4713;-90
2022/09/13 01:02:46;;;;;;;;;;;22.30;99.90;220.40;238766.00;;;;341753;28;4873;-90
2022/09/13 01:03:03;;;;;;;;;;;22.40;99.90;220.40;238766.00;;;;343242;28;4724;-90
2022/09/13 01:03:15;;;;;;;;;;;22.30;99.90;220.40;238766.00;;;;341944;28;4800;-89
2022/09/13 01:03:29;;;;;;;;;;;22.30;99.90;220.40;238766.00;;;;341926;28;4798;-89
2022/09/13 01:03:41;;;;;;;;;;;22.30;99.90;220.40;238766.00;;;;341875;28;4794;-90
2022/09/13 01:03:53;;;;;;;;;;;22.30;99.90;220.40;238766.00;;;;342054;28;4715;-90
2022/09/13 01:04:05;;;;;;;;;;;22.30;99.90;220.40;238766.00;;;;340530;29;4832;-90
2022/09/13 01:04:24;;;;;;;;;;;22.30;99.90;220.40;238766.00;;;;341967;28;4722;-90
2022/09/13 01:04:36;;;;;;;;;;;22.30;99.90;220.40;238766.00;;;;343330;28;4793;-89
2022/09/13 01:04:48;;;;;;;;;;;22.30;99.90;220.40;238766.00;;;;341920;28;4740;-89